Time;durP1;ratioP1;P1;durP2;ratioP2;P2;SDS_P1;SDS_P2;PMS_P1;PMS_P2;Temp;Humidity;BMP_temperature;BMP_pressure;BME280_temperature;BME280_humidity;BME280_pressure;Samples;Min_cycle;Max_cycle;Signal;HPM_P1;HPM_P2
2022/03/13 00:01:22;;;;;;;22.52;9.88;;;;;;;;;;5049896;28;20041;-68
2022/03/13 00:04:27;;;;;;;16.92;9.02;;;;;;;;;;5050167;28;20036;-68
2022/03/13 00:07:34;;;;;;;13.88;7.43;;;;;;;;;;5050053;28;20037;-67
2022/03/13 00:10:38;;;;;;;13.85;7.20;;;;;;;;;;5049885;28;20041;-67
2022/03/13 00:13:53;;;;;;;10.75;6.97;;;;;;;;;;5051065;28;20033;-68
2022/03/13 00:16:57;;;;;;;13.90;6.40;;;;;;;;;;5032770;28;20057;-68
2022/03/13 00:20:03;;;;;;;10.63;5.95;;;;;;;;;;5033651;28;20054;-68
2022/03/13 00:23:08;;;;;;;10.80;5.63;;;;;;;;;;5033433;28;20520;-68
2022/03/13 00:26:14;;;;;;;11.95;6.03;;;;;;;;;;5033544;28;20037;-68
2022/03/13 00:29:19;;;;;;;9.05;5.68;;;;;;;;;;5033580;28;20378;-68
2022/03/13 00:32:24;;;;;;;12.23;5.85;;;;;;;;;;5033563;28;20038;-68
2022/03/13 00:35:28;;;;;;;12.38;5.70;;;;;;;;;;5033556;28;20037;-68
2022/03/13 00:38:32;;;;;;;7.45;5.68;;;;;;;;;;5032515;28;20053;-68
2022/03/13 00:41:37;;;;;;;9.85;6.03;;;;;;;;;;5033539;28;20477;-68
2022/03/13 00:44:42;;;;;;;10.38;5.63;;;;;;;;;;5032119;28;20378;-68
2022/03/13 00:47:47;;;;;;;11.27;6.10;;;;;;;;;;5033325;28;20532;-68
2022/03/13 00:50:51;;;;;;;9.38;5.40;;;;;;;;;;5033123;28;20044;-68
2022/03/13 00:53:55;;;;;;;8.13;5.57;;;;;;;;;;5033318;28;20041;-68
2022/03/13 00:57:00;;;;;;;9.10;5.28;;;;;;;;;;5032296;28;20045;-68
2022/03/13 01:00:05;;;;;;;10.48;6.15;;;;;;;;;;5032780;28;20042;-68
2022/03/13 01:03:29;;;;;;;15.63;6.00;;;;;;;;;;5032863;28;20504;-69
2022/03/13 01:06:34;;;;;;;12.65;5.70;;;;;;;;;;5033129;28;20389;-68
2022/03/13 01:09:38;;;;;;;11.55;5.90;;;;;;;;;;5032982;28;20034;-68
2022/03/13 01:12:42;;;;;;;8.32;5.40;;;;;;;;;;5032990;28;20045;-68
2022/03/13 01:15:48;;;;;;;9.52;5.53;;;;;;;;;;5045401;28;20049;-67
2022/03/13 01:18:53;;;;;;;8.00;5.13;;;;;;;;;;5051746;28;20049;-67
2022/03/13 01:21:57;;;;;;;9.75;5.10;;;;;;;;;;5052446;28;20037;-68
2022/03/13 01:25:02;;;;;;;12.07;5.45;;;;;;;;;;5052696;28;20037;-68
2022/03/13 01:28:07;;;;;;;9.35;5.00;;;;;;;;;;5052208;28;20045;-68
2022/03/13 01:31:11;;;;;;;8.18;5.07;;;;;;;;;;5052222;28;20504;-68
2022/03/13 01:34:36;;;;;;;9.80;5.18;;;;;;;;;;5052029;28;20037;-68
2022/03/13 01:37:40;;;;;;;14.45;5.38;;;;;;;;;;5052195;28;20037;-68
2022/03/13 01:40:50;;;;;;;8.75;5.47;;;;;;;;;;5051238;28;20056;-68
2022/03/13 01:44:00;;;;;;;12.23;5.47;;;;;;;;;;5051598;28;20041;-67
2022/03/13 01:47:06;;;;;;;7.47;5.18;;;;;;;;;;5052015;28;20504;-67
2022/03/13 01:50:12;;;;;;;12.90;6.45;;;;;;;;;;5052108;28;20044;-67
2022/03/13 01:53:20;;;;;;;9.55;5.07;;;;;;;;;;5051986;28;20033;-68
2022/03/13 01:56:25;;;;;;;10.88;5.18;;;;;;;;;;5051964;28;20041;-67
2022/03/13 01:59:30;;;;;;;10.20;5.82;;;;;;;;;;5051472;28;20142;-67
2022/03/13 02:02:34;;;;;;;10.70;5.55;;;;;;;;;;5052450;28;20052;-68
2022/03/13 02:05:39;;;;;;;9.35;5.18;;;;;;;;;;5051874;28;20043;-68
2022/03/13 02:08:47;;;;;;;8.13;5.55;;;;;;;;;;5051487;28;20037;-68
2022/03/13 02:11:52;;;;;;;8.20;4.95;;;;;;;;;;5051769;28;20036;-68
2022/03/13 02:14:56;;;;;;;10.45;4.72;;;;;;;;;;5051131;28;20045;-68
2022/03/13 02:18:02;;;;;;;7.03;5.15;;;;;;;;;;5051695;28;20053;-68
2022/03/13 02:21:06;;;;;;;6.45;4.93;;;;;;;;;;5051495;28;20033;-68
2022/03/13 02:24:13;;;;;;;7.38;4.85;;;;;;;;;;5050790;28;20041;-68
2022/03/13 02:27:21;;;;;;;7.30;5.20;;;;;;;;;;5051407;28;20051;-68
2022/03/13 02:30:27;;;;;;;9.82;4.90;;;;;;;;;;5051108;28;20029;-68
2022/03/13 02:33:32;;;;;;;13.05;5.53;;;;;;;;;;5051317;28;20041;-68
2022/03/13 02:36:36;;;;;;;8.82;5.28;;;;;;;;;;5050619;28;20373;-68
2022/03/13 02:39:40;;;;;;;11.30;5.38;;;;;;;;;;5050937;28;20196;-68
2022/03/13 02:42:45;;;;;;;14.52;5.85;;;;;;;;;;5051450;28;20045;-68
2022/03/13 02:45:52;;;;;;;9.68;5.57;;;;;;;;;;5051147;28;20063;-68
2022/03/13 02:48:56;;;;;;;7.95;5.50;;;;;;;;;;5050942;28;20037;-68
2022/03/13 02:52:03;;;;;;;11.38;5.82;;;;;;;;;;5051030;28;20041;-68
2022/03/13 02:55:08;;;;;;;7.45;5.40;;;;;;;;;;5050252;28;20107;-68
2022/03/13 02:58:12;;;;;;;10.05;4.97;;;;;;;;;;5050919;28;20053;-67
2022/03/13 03:01:17;;;;;;;12.07;5.50;;;;;;;;;;5050858;28;20045;-67
2022/03/13 03:04:24;;;;;;;9.90;5.63;;;;;;;;;;5050695;28;20049;-68
2022/03/13 03:07:29;;;;;;;14.25;5.18;;;;;;;;;;5050760;28;20037;-67
2022/03/13 03:10:33;;;;;;;8.05;5.28;;;;;;;;;;5050666;28;20040;-68
2022/03/13 03:13:38;;;;;;;7.82;4.82;;;;;;;;;;5050756;28;20041;-67
2022/03/13 03:16:43;;;;;;;7.72;4.78;;;;;;;;;;5050587;28;20049;-67
2022/03/13 03:19:47;;;;;;;7.43;4.97;;;;;;;;;;5050414;28;20493;-68
2022/03/13 03:22:52;;;;;;;8.82;5.22;;;;;;;;;;5050737;28;20032;-68
2022/03/13 03:25:56;;;;;;;8.00;5.50;;;;;;;;;;5050568;28;20044;-68
2022/03/13 03:29:01;;;;;;;6.72;5.18;;;;;;;;;;5050620;28;20037;-68
2022/03/13 03:32:06;;;;;;;9.65;5.38;;;;;;;;;;5050602;28;20370;-68
2022/03/13 03:35:10;;;;;;;8.95;5.53;;;;;;;;;;5049557;28;20481;-68
2022/03/13 03:38:14;;;;;;;10.65;5.25;;;;;;;;;;5049718;28;20429;-68
2022/03/13 03:41:18;;;;;;;12.20;6.65;;;;;;;;;;5050523;28;20033;-68
2022/03/13 03:44:25;;;;;;;12.45;6.50;;;;;;;;;;5050502;28;20056;-68
2022/03/13 03:47:29;;;;;;;12.80;6.70;;;;;;;;;;5050296;28;20115;-68
2022/03/13 03:50:33;;;;;;;13.02;7.70;;;;;;;;;;5054228;28;20053;-68
2022/03/13 03:53:38;;;;;;;10.65;7.60;;;;;;;;;;5054015;28;20041;-68
2022/03/13 03:56:43;;;;;;;14.02;8.18;;;;;;;;;;5054361;28;20037;-68
2022/03/13 03:59:47;;;;;;;11.70;6.88;;;;;;;;;;5053730;28;20052;-68
2022/03/13 04:02:51;;;;;;;11.82;7.75;;;;;;;;;;5053983;28;20048;-68
2022/03/13 04:05:55;;;;;;;18.35;9.50;;;;;;;;;;5054240;28;20054;-68
2022/03/13 04:09:00;;;;;;;17.13;7.88;;;;;;;;;;5053957;28;20417;-68
2022/03/13 04:12:07;;;;;;;12.15;7.20;;;;;;;;;;5054072;28;20048;-68
2022/03/13 04:15:11;;;;;;;12.82;7.18;;;;;;;;;;5052865;28;20041;-68
2022/03/13 04:18:19;;;;;;;13.68;6.88;;;;;;;;;;5053553;28;20430;-68
2022/03/13 04:21:23;;;;;;;11.65;6.47;;;;;;;;;;5053742;28;20040;-68
2022/03/13 04:24:30;;;;;;;13.20;8.48;;;;;;;;;;5053821;28;20051;-68
2022/03/13 04:27:35;;;;;;;13.25;8.55;;;;;;;;;;5053661;28;20052;-68
2022/03/13 04:30:40;;;;;;;13.25;8.27;;;;;;;;;;5052845;28;20041;-68
2022/03/13 04:33:43;;;;;;;14.80;9.77;;;;;;;;;;5053500;28;20037;-67
2022/03/13 04:36:48;;;;;;;16.17;8.10;;;;;;;;;;5052727;28;20037;-69
2022/03/13 04:39:52;;;;;;;18.80;9.45;;;;;;;;;;5053156;28;20100;-68
2022/03/13 04:42:56;;;;;;;14.00;8.98;;;;;;;;;;5053059;28;20453;-68
2022/03/13 04:46:01;;;;;;;15.73;9.68;;;;;;;;;;5053999;28;20048;-68
2022/03/13 04:49:05;;;;;;;16.90;11.40;;;;;;;;;;5052942;28;20037;-68
2022/03/13 04:52:10;;;;;;;17.23;11.13;;;;;;;;;;5052987;28;20412;-68
2022/03/13 04:55:14;;;;;;;19.65;9.95;;;;;;;;;;5052967;28;20413;-68
2022/03/13 04:58:19;;;;;;;19.90;11.23;;;;;;;;;;5052358;28;20053;-68
2022/03/13 05:01:26;;;;;;;16.02;10.35;;;;;;;;;;5053010;28;20043;-68
2022/03/13 05:04:31;;;;;;;13.48;10.38;;;;;;;;;;5052872;28;20048;-69
2022/03/13 05:07:38;;;;;;;15.40;9.45;;;;;;;;;;5052772;28;20047;-68
2022/03/13 05:10:43;;;;;;;14.65;8.07;;;;;;;;;;5052544;28;20041;-68
2022/03/13 05:13:47;;;;;;;15.15;6.95;;;;;;;;;;5053006;28;20041;-68
2022/03/13 05:16:52;;;;;;;28.42;14.15;;;;;;;;;;5052761;28;20052;-68
2022/03/13 05:19:56;;;;;;;19.00;10.25;;;;;;;;;;5052222;28;20080;-67
2022/03/13 05:23:01;;;;;;;23.63;11.07;;;;;;;;;;5052610;28;20040;-68
2022/03/13 05:26:05;;;;;;;25.17;11.63;;;;;;;;;;5051456;28;20051;-70
2022/03/13 05:29:09;;;;;;;21.83;11.95;;;;;;;;;;5052064;28;20044;-67
2022/03/13 05:32:13;;;;;;;20.25;12.05;;;;;;;;;;5052655;28;20044;-69
2022/03/13 05:35:18;;;;;;;16.15;11.05;;;;;;;;;;5052772;28;20052;-68
2022/03/13 05:38:22;;;;;;;20.88;12.80;;;;;;;;;;5052266;28;20064;-67
2022/03/13 05:41:27;;;;;;;18.55;11.27;;;;;;;;;;5051456;28;20111;-69
2022/03/13 05:44:31;;;;;;;20.50;11.43;;;;;;;;;;5052840;28;20044;-69
2022/03/13 05:47:43;;;;;;;19.30;12.00;;;;;;;;;;5052261;28;20338;-69
2022/03/13 05:50:47;;;;;;;21.15;11.45;;;;;;;;;;5051048;28;20048;-68
2022/03/13 05:53:52;;;;;;;23.33;11.63;;;;;;;;;;5051921;28;20428;-69
2022/03/13 05:56:58;;;;;;;17.92;11.93;;;;;;;;;;5052035;28;20048;-69
2022/03/13 06:00:11;;;;;;;22.63;11.30;;;;;;;;;;5051505;28;20522;-68
2022/03/13 06:03:21;;;;;;;19.10;11.45;;;;;;;;;;5052069;28;20388;-68
2022/03/13 06:06:25;;;;;;;16.75;11.68;;;;;;;;;;5051671;28;20044;-67
2022/03/13 06:09:30;;;;;;;17.40;11.88;;;;;;;;;;5051536;28;20047;-67
2022/03/13 06:12:35;;;;;;;19.05;11.43;;;;;;;;;;5051225;28;20039;-69
2022/03/13 06:15:39;;;;;;;17.23;10.77;;;;;;;;;;5050219;28;20547;-67
2022/03/13 06:18:44;;;;;;;19.65;11.85;;;;;;;;;;5050802;28;20056;-68
2022/03/13 06:21:49;;;;;;;19.52;11.13;;;;;;;;;;5050781;28;20044;-69
2022/03/13 06:24:53;;;;;;;16.33;12.15;;;;;;;;;;5051565;28;20500;-70
2022/03/13 06:27:58;;;;;;;18.60;12.52;;;;;;;;;;5050469;28;20052;-67
2022/03/13 06:31:02;;;;;;;15.07;11.48;;;;;;;;;;5051229;28;20397;-69
2022/03/13 06:34:08;;;;;;;13.50;11.30;;;;;;;;;;5051188;28;20040;-68
2022/03/13 06:37:12;;;;;;;14.68;11.27;;;;;;;;;;5050945;28;20044;-68
2022/03/13 06:40:20;;;;;;;13.80;10.25;;;;;;;;;;5050957;28;20048;-67
2022/03/13 06:43:27;;;;;;;14.60;10.25;;;;;;;;;;5051102;28;20040;-69
2022/03/13 06:46:32;;;;;;;18.85;11.35;;;;;;;;;;5050952;28;20504;-68
2022/03/13 06:49:36;;;;;;;11.27;10.02;;;;;;;;;;5050735;28;20052;-67
2022/03/13 06:52:41;;;;;;;16.60;10.10;;;;;;;;;;5050100;28;20048;-68
2022/03/13 06:55:46;;;;;;;14.73;9.95;;;;;;;;;;5038684;28;20044;-66
2022/03/13 06:58:50;;;;;;;20.08;9.80;;;;;;;;;;5050627;28;20377;-67
2022/03/13 07:01:55;;;;;;;10.63;8.50;;;;;;;;;;5050743;28;20637;-68
2022/03/13 07:04:59;;;;;;;14.88;8.75;;;;;;;;;;5051560;28;20431;-68
2022/03/13 07:08:03;;;;;;;13.00;8.85;;;;;;;;;;5050972;28;20033;-68
2022/03/13 07:11:07;;;;;;;18.45;8.43;;;;;;;;;;5050841;28;20369;-69
2022/03/13 07:14:12;;;;;;;14.80;8.40;;;;;;;;;;5050696;28;20048;-68
2022/03/13 07:17:16;;;;;;;12.68;8.00;;;;;;;;;;5049733;28;20053;-68
2022/03/13 07:20:21;;;;;;;17.05;8.73;;;;;;;;;;5050153;28;20056;-69
2022/03/13 07:23:25;;;;;;;16.33;6.93;;;;;;;;;;5054545;28;20045;-68
2022/03/13 07:26:30;;;;;;;12.52;6.85;;;;;;;;;;5057290;28;20039;-68
2022/03/13 07:29:34;;;;;;;12.68;6.85;;;;;;;;;;5057179;28;20040;-69
2022/03/13 07:32:40;;;;;;;14.30;7.25;;;;;;;;;;5056423;28;20068;-69
2022/03/13 07:35:44;;;;;;;8.85;6.30;;;;;;;;;;5057188;28;20539;-68
2022/03/13 07:38:48;;;;;;;8.68;5.18;;;;;;;;;;5056781;28;20052;-67
2022/03/13 07:41:54;;;;;;;6.85;5.10;;;;;;;;;;5057160;28;20032;-70
2022/03/13 07:44:59;;;;;;;7.15;4.32;;;;;;;;;;5056844;28;20044;-68
2022/03/13 07:48:03;;;;;;;13.65;4.80;;;;;;;;;;5056430;28;20032;-69
2022/03/13 07:51:07;;;;;;;7.50;4.53;;;;;;;;;;5057237;28;20054;-68
2022/03/13 07:54:12;;;;;;;10.57;4.40;;;;;;;;;;5057173;28;20045;-69
2022/03/13 07:57:17;;;;;;;7.50;4.30;;;;;;;;;;5056143;28;20028;-69
2022/03/13 08:00:23;;;;;;;8.85;4.72;;;;;;;;;;5057003;28;20041;-69
2022/03/13 08:03:35;;;;;;;7.00;4.38;;;;;;;;;;5056831;28;20037;-68
2022/03/13 08:06:39;;;;;;;17.05;4.90;;;;;;;;;;5056778;28;20041;-69
2022/03/13 08:09:44;;;;;;;11.70;4.35;;;;;;;;;;5056737;28;20036;-67
2022/03/13 08:12:48;;;;;;;14.52;6.40;;;;;;;;;;5057033;28;20048;-69
2022/03/13 08:15:53;;;;;;;9.13;5.75;;;;;;;;;;5056664;28;20044;-69
2022/03/13 08:18:57;;;;;;;11.57;5.15;;;;;;;;;;5056446;28;20516;-68
2022/03/13 08:22:01;;;;;;;6.57;4.35;;;;;;;;;;5056843;28;20398;-67
2022/03/13 08:25:06;;;;;;;11.00;5.65;;;;;;;;;;5056825;28;20045;-68
2022/03/13 08:28:12;;;;;;;9.32;5.63;;;;;;;;;;5056689;28;20465;-68
2022/03/13 08:31:17;;;;;;;13.32;7.68;;;;;;;;;;5056562;28;20362;-69
2022/03/13 08:34:21;;;;;;;36.00;17.70;;;;;;;;;;5054727;28;20036;-69
2022/03/13 08:37:26;;;;;;;11.20;6.03;;;;;;;;;;5053407;28;20047;-68
2022/03/13 08:40:30;;;;;;;9.15;4.40;;;;;;;;;;5053282;28;20053;-67
2022/03/13 08:43:35;;;;;;;6.95;4.68;;;;;;;;;;5053732;28;20037;-68
2022/03/13 08:46:39;;;;;;;6.63;4.03;;;;;;;;;;5052992;28;20393;-69
2022/03/13 08:49:44;;;;;;;9.05;6.25;;;;;;;;;;5053200;28;20041;-70
2022/03/13 08:52:48;;;;;;;8.00;4.82;;;;;;;;;;5053110;28;20442;-69
2022/03/13 08:55:52;;;;;;;8.90;5.65;;;;;;;;;;5053422;28;20033;-69
2022/03/13 08:58:57;;;;;;;10.60;5.28;;;;;;;;;;5052703;28;20377;-68
2022/03/13 09:02:02;;;;;;;8.38;5.32;;;;;;;;;;5053003;28;20037;-69
2022/03/13 09:05:06;;;;;;;6.93;4.43;;;;;;;;;;5053376;28;20041;-71
2022/03/13 09:08:10;;;;;;;5.95;4.32;;;;;;;;;;5051888;28;20037;-69
2022/03/13 09:11:15;;;;;;;7.65;5.13;;;;;;;;;;5052574;28;20165;-69
2022/03/13 09:14:21;;;;;;;7.55;4.80;;;;;;;;;;5052600;28;20037;-68
2022/03/13 09:17:25;;;;;;;10.30;5.05;;;;;;;;;;5052803;28;20045;-69
2022/03/13 09:20:30;;;;;;;8.52;5.38;;;;;;;;;;5052630;28;20078;-70
2022/03/13 09:23:36;;;;;;;7.88;5.18;;;;;;;;;;5052782;28;20448;-69
2022/03/13 09:26:40;;;;;;;6.72;4.90;;;;;;;;;;5052546;28;20188;-68
2022/03/13 09:29:44;;;;;;;9.45;5.25;;;;;;;;;;5052302;28;20041;-70
2022/03/13 09:32:49;;;;;;;11.23;5.45;;;;;;;;;;5052395;28;20029;-68
2022/03/13 09:35:54;;;;;;;9.93;4.88;;;;;;;;;;5052264;28;20465;-67
2022/03/13 09:38:58;;;;;;;6.82;4.68;;;;;;;;;;5052427;28;20037;-69
2022/03/13 09:42:04;;;;;;;8.73;5.10;;;;;;;;;;5051452;28;20036;-68
2022/03/13 09:45:08;;;;;;;7.53;5.45;;;;;;;;;;5051232;28;20033;-69
2022/03/13 09:48:15;;;;;;;9.27;5.43;;;;;;;;;;5051897;28;20041;-69
2022/03/13 09:51:20;;;;;;;9.88;5.35;;;;;;;;;;5051831;28;20045;-69
2022/03/13 09:54:24;;;;;;;7.10;4.93;;;;;;;;;;5052057;28;20041;-67
2022/03/13 09:57:29;;;;;;;9.63;5.30;;;;;;;;;;5052007;28;20480;-68
2022/03/13 10:00:36;;;;;;;9.50;5.90;;;;;;;;;;5051913;28;20037;-67
2022/03/13 10:03:40;;;;;;;8.25;5.13;;;;;;;;;;5050953;28;20025;-70
2022/03/13 10:07:03;;;;;;;8.50;5.13;;;;;;;;;;5051555;28;20029;-69
2022/03/13 10:10:13;;;;;;;8.90;5.05;;;;;;;;;;5051405;28;20495;-68
2022/03/13 10:13:32;;;;;;;11.85;6.45;;;;;;;;;;5051806;28;20045;-69
2022/03/13 10:16:37;;;;;;;6.90;4.93;;;;;;;;;;5051606;28;20049;-70
2022/03/13 10:19:42;;;;;;;12.50;6.82;;;;;;;;;;5051448;28;20045;-70
2022/03/13 10:22:51;;;;;;;8.07;5.22;;;;;;;;;;5051745;28;20397;-69
2022/03/13 10:25:55;;;;;;;9.82;6.57;;;;;;;;;;5051602;28;20041;-68
2022/03/13 10:28:59;;;;;;;10.82;5.55;;;;;;;;;;5051456;28;20037;-67
2022/03/13 10:32:05;;;;;;;10.13;6.03;;;;;;;;;;5050216;28;20431;-69
2022/03/13 10:35:12;;;;;;;8.55;5.93;;;;;;;;;;5051256;28;20060;-68
2022/03/13 10:38:23;;;;;;;9.23;5.90;;;;;;;;;;5051048;28;20037;-68
2022/03/13 10:41:47;;;;;;;9.37;5.80;;;;;;;;;;5051213;28;20049;-69
2022/03/13 10:44:54;;;;;;;8.02;6.00;;;;;;;;;;5051058;28;20472;-68
2022/03/13 10:48:17;;;;;;;9.45;5.80;;;;;;;;;;5050211;28;20041;-69
2022/03/13 10:51:45;;;;;;;8.98;5.88;;;;;;;;;;5051227;28;20029;-69
2022/03/13 10:54:56;;;;;;;8.68;5.80;;;;;;;;;;5050987;28;20037;-68
2022/03/13 10:58:00;;;;;;;7.78;5.70;;;;;;;;;;5050560;28;20040;-69
2022/03/13 11:01:09;;;;;;;11.45;6.30;;;;;;;;;;5050877;28;20045;-70
2022/03/13 11:04:16;;;;;;;10.38;6.07;;;;;;;;;;5051140;28;20065;-68
2022/03/13 11:07:21;;;;;;;10.43;6.60;;;;;;;;;;5050736;28;20041;-69
2022/03/13 11:10:25;;;;;;;8.90;5.88;;;;;;;;;;5050994;28;20056;-68
2022/03/13 11:13:32;;;;;;;13.93;6.70;;;;;;;;;;5050123;28;20037;-69
2022/03/13 11:16:36;;;;;;;10.27;6.47;;;;;;;;;;5050637;28;20060;-68
2022/03/13 11:19:41;;;;;;;8.93;6.03;;;;;;;;;;5050590;28;20400;-67
2022/03/13 11:22:45;;;;;;;11.27;6.55;;;;;;;;;;5050539;28;20049;-69
2022/03/13 11:25:55;;;;;;;9.90;6.20;;;;;;;;;;5050817;28;20036;-72
2022/03/13 11:29:00;;;;;;;8.80;5.82;;;;;;;;;;5050573;28;20045;-68
2022/03/13 11:32:24;;;;;;;9.30;6.03;;;;;;;;;;5050885;28;20037;-70
2022/03/13 11:35:30;;;;;;;10.35;6.05;;;;;;;;;;5050534;28;20045;-70
2022/03/13 11:38:53;;;;;;;12.70;6.65;;;;;;;;;;5050697;28;20041;-69
2022/03/13 11:41:58;;;;;;;10.00;6.00;;;;;;;;;;5038537;28;20049;-68
2022/03/13 11:45:11;;;;;;;13.30;6.72;;;;;;;;;;5050376;28;20033;-67
2022/03/13 11:48:15;;;;;;;10.38;6.50;;;;;;;;;;5050433;28;20578;-67
2022/03/13 11:51:29;;;;;;;13.13;8.73;;;;;;;;;;5050474;28;20044;-69
2022/03/13 11:55:00;;;;;;;12.15;6.95;;;;;;;;;;5050290;28;20037;-67
2022/03/13 11:58:07;;;;;;;12.82;5.80;;;;;;;;;;5050226;28;20048;-68
2022/03/13 12:01:14;;;;;;;12.15;7.53;;;;;;;;;;5050460;28;20056;-68
2022/03/13 12:04:19;;;;;;;13.07;7.35;;;;;;;;;;5049543;28;20424;-69
2022/03/13 12:07:27;;;;;;;12.48;7.40;;;;;;;;;;5050232;28;20044;-68
2022/03/13 12:10:41;;;;;;;9.15;6.03;;;;;;;;;;5052863;28;20044;-68
2022/03/13 12:13:48;;;;;;;10.23;6.70;;;;;;;;;;5054363;28;20037;-69
2022/03/13 12:17:08;;;;;;;7.97;5.80;;;;;;;;;;5014320;28;20046;-70
2022/03/13 12:20:24;;;;;;;14.77;5.60;;;;;;;;;;5014106;28;20054;-69
2022/03/13 12:23:34;;;;;;;15.15;7.28;;;;;;;;;;5014065;28;20041;-68
2022/03/13 12:26:39;;;;;;;13.35;8.30;;;;;;;;;;5014379;28;20054;-69
2022/03/13 12:29:49;;;;;;;13.05;7.78;;;;;;;;;;5014078;28;20042;-69
2022/03/13 12:33:00;;;;;;;12.57;7.47;;;;;;;;;;5014050;28;20037;-68
2022/03/13 12:36:04;;;;;;;19.17;9.90;;;;;;;;;;5013972;28;20057;-69
2022/03/13 12:39:16;;;;;;;16.80;7.63;;;;;;;;;;5014001;28;20506;-70
2022/03/13 12:42:23;;;;;;;15.80;8.75;;;;;;;;;;5014322;28;20049;-69
2022/03/13 12:45:28;;;;;;;12.98;8.75;;;;;;;;;;5014221;28;20042;-69
2022/03/13 12:48:32;;;;;;;9.68;7.40;;;;;;;;;;5013628;28;20040;-68
2022/03/13 12:51:40;;;;;;;30.00;18.02;;;;;;;;;;5014131;28;20042;-67
2022/03/13 12:54:44;;;;;;;25.58;14.85;;;;;;;;;;5013634;28;20618;-68
2022/03/13 12:57:53;;;;;;;26.75;14.60;;;;;;;;;;5013387;28;20045;-67
2022/03/13 13:00:57;;;;;;;25.20;14.50;;;;;;;;;;5013354;28;20049;-67
2022/03/13 13:04:02;;;;;;;84.22;44.58;;;;;;;;;;5013269;28;20056;-67
2022/03/13 13:07:09;;;;;;;91.38;49.85;;;;;;;;;;5013254;28;20079;-68
2022/03/13 13:10:15;;;;;;;21.13;11.95;;;;;;;;;;5013468;28;20057;-68
2022/03/13 13:13:24;;;;;;;11.35;7.40;;;;;;;;;;5013439;28;20049;-69
2022/03/13 13:16:32;;;;;;;12.85;7.70;;;;;;;;;;5049942;28;20063;-69
2022/03/13 13:19:40;;;;;;;16.30;7.20;;;;;;;;;;5052682;28;20497;-69
2022/03/13 13:22:44;;;;;;;9.23;6.68;;;;;;;;;;5053142;28;20033;-68
2022/03/13 13:25:50;;;;;;;10.40;7.47;;;;;;;;;;5053000;28;20049;-69
2022/03/13 13:28:58;;;;;;;20.50;13.30;;;;;;;;;;5051860;28;20048;-68
2022/03/13 13:32:21;;;;;;;12.52;8.75;;;;;;;;;;5052968;28;20048;-68
2022/03/13 13:35:31;;;;;;;11.52;6.75;;;;;;;;;;5052146;28;20060;-69
2022/03/13 13:38:36;;;;;;;11.25;6.90;;;;;;;;;;5051591;28;20438;-68
2022/03/13 13:41:41;;;;;;;11.10;7.25;;;;;;;;;;5052336;28;20048;-69
2022/03/13 13:44:45;;;;;;;8.75;6.85;;;;;;;;;;5052231;28;20044;-67
2022/03/13 13:47:50;;;;;;;11.23;7.57;;;;;;;;;;5052067;28;20040;-68
2022/03/13 13:51:13;;;;;;;10.32;6.80;;;;;;;;;;5052379;28;20492;-67
2022/03/13 13:54:20;;;;;;;8.77;6.72;;;;;;;;;;5052021;28;20395;-66
2022/03/13 13:57:25;;;;;;;8.90;5.50;;;;;;;;;;5051190;28;20041;-66
2022/03/13 14:00:29;;;;;;;8.63;6.35;;;;;;;;;;5051839;28;20295;-66
2022/03/13 14:03:34;;;;;;;9.80;6.90;;;;;;;;;;5051844;28;20032;-66
2022/03/13 14:06:42;;;;;;;10.70;6.53;;;;;;;;;;5051015;28;20041;-68
2022/03/13 14:09:46;;;;;;;10.82;6.18;;;;;;;;;;5051962;28;20044;-68
2022/03/13 14:12:51;;;;;;;8.10;6.65;;;;;;;;;;5051696;28;20033;-68
2022/03/13 14:15:55;;;;;;;7.50;5.75;;;;;;;;;;5050839;28;20049;-68
2022/03/13 14:19:00;;;;;;;9.45;6.22;;;;;;;;;;5052290;28;20048;-66
2022/03/13 14:22:06;;;;;;;10.95;6.10;;;;;;;;;;5051692;28;20049;-68
2022/03/13 14:25:11;;;;;;;8.82;6.43;;;;;;;;;;5051755;28;20040;-68
2022/03/13 14:28:18;;;;;;;9.75;6.68;;;;;;;;;;5050760;28;20492;-67
2022/03/13 14:31:23;;;;;;;13.18;7.75;;;;;;;;;;5051816;28;20036;-68
2022/03/13 14:34:27;;;;;;;11.07;7.28;;;;;;;;;;5051441;28;20032;-68
2022/03/13 14:37:32;;;;;;;12.20;6.30;;;;;;;;;;5051811;28;20037;-68
2022/03/13 14:40:36;;;;;;;9.52;5.90;;;;;;;;;;5051389;28;20044;-68
2022/03/13 14:43:41;;;;;;;8.52;6.03;;;;;;;;;;5051284;28;20029;-68
2022/03/13 14:46:45;;;;;;;10.55;6.32;;;;;;;;;;5051022;28;20208;-69
2022/03/13 14:49:52;;;;;;;9.80;6.07;;;;;;;;;;5051367;28;20509;-67
2022/03/13 14:52:56;;;;;;;10.30;6.43;;;;;;;;;;5050999;28;20402;-68
2022/03/13 14:56:01;;;;;;;8.32;5.93;;;;;;;;;;5051114;28;20041;-68
2022/03/13 14:59:06;;;;;;;8.38;5.03;;;;;;;;;;5050950;28;20045;-68
2022/03/13 15:02:10;;;;;;;8.73;5.90;;;;;;;;;;5051181;28;20040;-68
2022/03/13 15:05:14;;;;;;;12.25;8.60;;;;;;;;;;5051888;28;20029;-67
2022/03/13 15:08:18;;;;;;;10.32;6.40;;;;;;;;;;5051366;28;20041;-68
2022/03/13 15:11:22;;;;;;;12.73;6.00;;;;;;;;;;5050618;28;20041;-68
2022/03/13 15:14:27;;;;;;;11.90;6.55;;;;;;;;;;5051075;28;20044;-68
2022/03/13 15:17:31;;;;;;;10.80;7.28;;;;;;;;;;5051159;28;20040;-68
2022/03/13 15:20:38;;;;;;;10.93;6.50;;;;;;;;;;5050891;28;20060;-68
2022/03/13 15:23:42;;;;;;;11.68;6.32;;;;;;;;;;5051075;28;20491;-68
2022/03/13 15:26:47;;;;;;;8.02;6.05;;;;;;;;;;5050890;28;20041;-69
2022/03/13 15:29:52;;;;;;;13.50;6.60;;;;;;;;;;5050821;28;20057;-69
2022/03/13 15:32:57;;;;;;;12.93;7.22;;;;;;;;;;5051088;28;20040;-69
2022/03/13 15:36:01;;;;;;;10.38;6.88;;;;;;;;;;5050772;28;20059;-70
2022/03/13 15:39:05;;;;;;;11.52;6.15;;;;;;;;;;5051028;28;20050;-68
2022/03/13 15:42:09;;;;;;;9.38;5.93;;;;;;;;;;5050784;28;20405;-71
2022/03/13 15:45:13;;;;;;;9.95;6.00;;;;;;;;;;5054656;28;20041;-68
2022/03/13 15:48:19;;;;;;;11.48;5.70;;;;;;;;;;5054421;28;20041;-68
2022/03/13 15:51:23;;;;;;;10.75;6.15;;;;;;;;;;5042339;28;20043;-67
2022/03/13 15:54:28;;;;;;;12.38;7.72;;;;;;;;;;5054729;28;20044;-70
2022/03/13 15:57:32;;;;;;;12.13;7.10;;;;;;;;;;5054349;28;20041;-69
2022/03/13 16:00:37;;;;;;;10.73;6.20;;;;;;;;;;5054419;28;20417;-68
2022/03/13 16:03:41;;;;;;;13.23;7.40;;;;;;;;;;5054228;28;20504;-69
2022/03/13 16:06:46;;;;;;;12.13;8.23;;;;;;;;;;5054324;28;20055;-70
2022/03/13 16:09:50;;;;;;;11.77;6.72;;;;;;;;;;5042122;28;20048;-68
2022/03/13 16:12:55;;;;;;;13.13;7.05;;;;;;;;;;5054362;28;20064;-68
2022/03/13 16:16:02;;;;;;;17.10;6.97;;;;;;;;;;5053780;28;20064;-68
2022/03/13 16:19:08;;;;;;;12.60;6.95;;;;;;;;;;5053939;28;20033;-70
2022/03/13 16:22:13;;;;;;;10.77;7.13;;;;;;;;;;5053882;28;20045;-68
2022/03/13 16:25:18;;;;;;;10.50;7.10;;;;;;;;;;5053836;28;20366;-70
2022/03/13 16:28:22;;;;;;;13.93;7.57;;;;;;;;;;5053448;28;20408;-69
2022/03/13 16:31:27;;;;;;;15.90;8.00;;;;;;;;;;5053697;28;20279;-69
2022/03/13 16:34:31;;;;;;;13.43;8.40;;;;;;;;;;5053583;28;20038;-69
2022/03/13 16:37:36;;;;;;;12.45;8.00;;;;;;;;;;5053715;28;20036;-69
2022/03/13 16:40:41;;;;;;;22.50;8.85;;;;;;;;;;5053753;28;20053;-72
2022/03/13 16:43:46;;;;;;;16.60;8.05;;;;;;;;;;5053555;28;20044;-71
2022/03/13 16:46:51;;;;;;;18.33;11.32;;;;;;;;;;5052589;28;20043;-69
2022/03/13 16:49:57;;;;;;;30.92;18.40;;;;;;;;;;5053636;28;20040;-72
2022/03/13 16:53:01;;;;;;;14.55;10.10;;;;;;;;;;5053468;28;20472;-69
2022/03/13 16:56:06;;;;;;;13.70;8.90;;;;;;;;;;5053108;28;20051;-69
2022/03/13 16:59:11;;;;;;;21.02;10.43;;;;;;;;;;5053371;28;20041;-69
2022/03/13 17:02:15;;;;;;;30.25;14.80;;;;;;;;;;5053199;28;20056;-68
2022/03/13 17:05:19;;;;;;;19.15;10.27;;;;;;;;;;5053182;28;20639;-69
2022/03/13 17:08:24;;;;;;;23.23;10.25;;;;;;;;;;5053028;28;20043;-68
2022/03/13 17:11:28;;;;;;;18.40;10.00;;;;;;;;;;5052984;28;20400;-68
2022/03/13 17:14:32;;;;;;;22.92;13.02;;;;;;;;;;5052648;28;20059;-68
2022/03/13 17:17:38;;;;;;;36.85;18.05;;;;;;;;;;5052668;28;20513;-67
2022/03/13 17:20:43;;;;;;;90.63;38.42;;;;;;;;;;5051725;28;20055;-69
2022/03/13 17:23:50;;;;;;;133.93;52.90;;;;;;;;;;5052732;28;20059;-69
2022/03/13 17:26:57;;;;;;;101.55;47.85;;;;;;;;;;5051846;28;20059;-68
2022/03/13 17:30:02;;;;;;;53.97;31.17;;;;;;;;;;5052508;28;20396;-68
2022/03/13 17:33:06;;;;;;;34.65;22.35;;;;;;;;;;5052723;28;20048;-68
2022/03/13 17:36:10;;;;;;;22.60;16.23;;;;;;;;;;5052741;28;20052;-68
2022/03/13 17:39:15;;;;;;;28.48;15.07;;;;;;;;;;5052200;28;20290;-68
2022/03/13 17:42:19;;;;;;;23.33;14.27;;;;;;;;;;5052423;28;20048;-67
2022/03/13 17:45:25;;;;;;;25.58;16.10;;;;;;;;;;5052344;28;20043;-67
2022/03/13 17:48:29;;;;;;;25.42;14.82;;;;;;;;;;5052364;28;20044;-68
2022/03/13 17:51:37;;;;;;;26.23;16.38;;;;;;;;;;5051990;28;20507;-68
2022/03/13 17:54:41;;;;;;;26.77;18.92;;;;;;;;;;5052058;28;20043;-69
2022/03/13 17:57:46;;;;;;;36.13;19.60;;;;;;;;;;5051935;28;20048;-68
2022/03/13 18:00:50;;;;;;;36.88;20.15;;;;;;;;;;5051895;28;20055;-68
2022/03/13 18:03:54;;;;;;;40.10;22.95;;;;;;;;;;5052150;28;20040;-67
2022/03/13 18:06:59;;;;;;;44.22;22.15;;;;;;;;;;5050307;28;20044;-67
2022/03/13 18:10:05;;;;;;;32.67;21.77;;;;;;;;;;5051844;28;20032;-68
2022/03/13 18:13:09;;;;;;;37.50;20.15;;;;;;;;;;5051516;28;20400;-69
2022/03/13 18:16:14;;;;;;;32.92;19.40;;;;;;;;;;5051400;28;20515;-68
2022/03/13 18:19:18;;;;;;;32.80;18.92;;;;;;;;;;5050690;28;20040;-68